createdAt,value
2022-08-16T00:00:04.305Z,23.52
2022-08-16T00:02:33.528Z,23.67
2022-08-16T00:05:02.421Z,23.81
2022-08-16T00:07:30.428Z,23.89
2022-08-16T00:09:58.912Z,23.94
2022-08-16T00:12:28.528Z,24.00
2022-08-16T00:14:57.526Z,24.00
2022-08-16T00:17:28.125Z,24.14
2022-08-16T00:19:56.023Z,24.19
2022-08-16T00:22:27.979Z,24.18
2022-08-16T00:24:55.696Z,24.23
2022-08-16T00:27:23.208Z,24.21
2022-08-16T00:30:08.456Z,24.24
2022-08-16T00:32:40.247Z,24.23
2022-08-16T00:35:15.273Z,24.26
2022-08-16T00:37:58.397Z,24.30
2022-08-16T00:40:34.234Z,24.33
2022-08-16T00:43:16.866Z,24.46
2022-08-16T00:46:01.361Z,24.39
2022-08-16T00:48:50.683Z,24.23
2022-08-16T00:51:20.263Z,23.81
2022-08-16T00:53:50.096Z,23.49
2022-08-16T00:56:57.741Z,23.25
2022-08-16T00:59:18.965Z,23.16
2022-08-16T01:01:46.158Z,23.00
2022-08-16T01:04:29.480Z,22.88
2022-08-16T01:07:03.249Z,22.87
2022-08-16T01:09:33.163Z,22.91
2022-08-16T01:12:03.329Z,22.92
2022-08-16T01:14:43.413Z,22.97
2022-08-16T01:17:13.883Z,23.08
2022-08-16T01:19:44.583Z,23.08
2022-08-16T01:22:48.346Z,23.19
2022-08-16T01:25:36.251Z,23.15
2022-08-16T01:28:08.192Z,22.89
2022-08-16T01:30:50.021Z,22.57
2022-08-16T01:33:20.176Z,22.24
2022-08-16T01:36:00.480Z,21.91
2022-08-16T01:38:33.033Z,21.67
2022-08-16T01:41:05.148Z,21.52
2022-08-16T01:43:36.662Z,21.41
2022-08-16T01:46:29.896Z,21.27
2022-08-16T01:49:04.315Z,21.28
2022-08-16T01:51:31.946Z,21.23
2022-08-16T01:53:59.615Z,21.14
2022-08-16T01:56:27.221Z,21.09
2022-08-16T01:58:57.174Z,21.01
2022-08-16T02:01:26.227Z,20.97
2022-08-16T02:03:58.638Z,20.82
2022-08-16T02:06:38.105Z,20.82
2022-08-16T02:09:11.851Z,20.89
2022-08-16T02:11:47.583Z,20.79
2022-08-16T02:14:18.527Z,20.73
2022-08-16T02:16:49.429Z,20.71
2022-08-16T02:19:18.519Z,20.72
2022-08-16T02:22:08.768Z,20.77
2022-08-16T02:24:42.274Z,20.82
2022-08-16T02:27:13.767Z,20.87
2022-08-16T02:29:43.095Z,20.85
2022-08-16T02:32:49.768Z,20.97
2022-08-16T02:35:00.659Z,20.99
2022-08-16T02:37:39.782Z,20.99
2022-08-16T02:40:17.244Z,21.02
2022-08-16T02:42:45.551Z,21.04
2022-08-16T02:45:27.697Z,21.05
2022-08-16T02:48:01.344Z,21.08
2022-08-16T02:50:54.004Z,21.09
2022-08-16T02:53:30.979Z,21.10
2022-08-16T02:55:59.237Z,21.11
2022-08-16T02:58:28.365Z,21.12
2022-08-16T03:00:57.465Z,21.14
2022-08-16T03:03:26.807Z,21.13
2022-08-16T03:06:42.480Z,21.13
2022-08-16T03:09:03.883Z,21.13
2022-08-16T03:11:35.595Z,21.05
2022-08-16T03:14:08.372Z,21.06
2022-08-16T03:16:39.071Z,21.01
2022-08-16T03:19:10.846Z,21.00
2022-08-16T03:21:38.874Z,20.98
2022-08-16T03:24:28.942Z,20.95
2022-08-16T03:26:58.119Z,20.91
2022-08-16T03:29:29.990Z,20.96
2022-08-16T03:32:01.556Z,20.90
2022-08-16T03:34:29.893Z,20.95
2022-08-16T03:36:58.313Z,20.96
2022-08-16T03:39:25.646Z,20.96
2022-08-16T03:41:59.911Z,20.96
2022-08-16T03:44:44.545Z,20.98
2022-08-16T03:47:19.143Z,20.98
2022-08-16T03:49:51.682Z,20.98
2022-08-16T03:52:23.860Z,20.98
2022-08-16T03:54:59.927Z,20.98
2022-08-16T03:57:31.887Z,21.00
2022-08-16T04:00:20.603Z,21.02
2022-08-16T04:03:07.697Z,21.06
2022-08-16T04:05:38.862Z,21.08
2022-08-16T04:08:22.915Z,21.15
2022-08-16T04:10:53.122Z,21.19
2022-08-16T04:13:58.856Z,21.23
2022-08-16T04:16:09.546Z,21.25
2022-08-16T04:19:02.159Z,21.29
2022-08-16T04:21:36.352Z,21.31
2022-08-16T04:24:15.498Z,21.35
2022-08-16T04:26:46.048Z,21.36
2022-08-16T04:29:23.788Z,21.42
2022-08-16T04:31:56.284Z,21.48
2022-08-16T04:34:29.594Z,21.48
2022-08-16T04:37:01.233Z,21.51
2022-08-16T04:39:37.009Z,21.59
2022-08-16T04:42:17.951Z,21.62
2022-08-16T04:44:53.372Z,21.68
2022-08-16T04:47:35.326Z,21.79
2022-08-16T04:50:12.566Z,21.92
2022-08-16T04:52:55.584Z,22.01
2022-08-16T04:55:31.742Z,22.12
2022-08-16T04:58:44.106Z,22.21
2022-08-16T05:00:55.011Z,22.32
2022-08-16T05:03:22.479Z,22.38
2022-08-16T05:05:59.142Z,22.46
2022-08-16T05:08:33.026Z,22.51
2022-08-16T05:11:09.833Z,22.68
2022-08-16T05:13:42.592Z,22.75
2022-08-16T05:16:32.338Z,22.89
2022-08-16T05:19:02.359Z,22.94
2022-08-16T05:21:37.956Z,22.99
2022-08-16T05:24:07.354Z,23.03
2022-08-16T05:26:40.822Z,23.04
2022-08-16T05:29:14.731Z,23.04
2022-08-16T05:31:48.420Z,23.06
2022-08-16T05:36:51.224Z,23.13
2022-08-16T05:39:20.567Z,23.14
2022-08-16T05:41:48.990Z,23.16
2022-08-16T05:44:22.438Z,23.18
2022-08-16T05:46:56.743Z,23.21
2022-08-16T05:49:36.843Z,23.16
2022-08-16T05:52:13.468Z,23.22
2022-08-16T05:54:47.278Z,23.22
2022-08-16T05:57:17.653Z,23.25
2022-08-16T05:59:47.385Z,23.30
2022-08-16T06:02:18.689Z,23.34
2022-08-16T06:04:46.407Z,23.39
2022-08-16T06:07:24.837Z,23.49
2022-08-16T06:09:58.282Z,23.60
2022-08-16T06:12:28.688Z,23.73
2022-08-16T06:14:59.333Z,23.73
2022-08-16T06:17:41.651Z,23.84
2022-08-16T06:20:24.149Z,23.86
2022-08-16T06:22:58.823Z,23.83
2022-08-16T06:25:36.523Z,23.80
2022-08-16T06:28:17.024Z,23.78
2022-08-16T06:30:45.955Z,23.72
2022-08-16T06:33:19.485Z,23.68
2022-08-16T06:35:47.386Z,23.65
2022-08-16T06:38:34.060Z,23.64
2022-08-16T06:41:12.310Z,23.62
2022-08-16T06:43:41.905Z,23.63
2022-08-16T06:46:23.744Z,23.59
2022-08-16T06:49:08.201Z,23.68
2022-08-16T06:51:46.192Z,23.67
2022-08-16T06:54:17.139Z,23.66
2022-08-16T06:56:44.772Z,23.65
2022-08-16T06:59:13.060Z,23.68
2022-08-16T07:01:44.471Z,23.65
2022-08-16T07:04:33.317Z,23.61
2022-08-16T07:07:06.304Z,23.49
2022-08-16T07:09:37.779Z,23.44
2022-08-16T07:12:05.806Z,23.50
2022-08-16T07:14:33.779Z,23.45
2022-08-16T07:17:03.591Z,23.43
2022-08-16T07:20:29.320Z,23.39
2022-08-16T07:22:37.297Z,23.42
2022-08-16T07:25:09.977Z,23.34
2022-08-16T07:27:38.428Z,23.41
2022-08-16T07:30:45.033Z,23.42
2022-08-16T07:32:56.885Z,23.49
2022-08-16T07:35:25.164Z,23.48
2022-08-16T07:37:52.156Z,23.50
2022-08-16T07:40:31.831Z,23.46
2022-08-16T07:43:07.459Z,23.38
2022-08-16T07:45:35.054Z,23.28
2022-08-16T07:48:11.788Z,23.28
2022-08-16T07:50:56.594Z,23.21
2022-08-16T07:53:31.588Z,23.11
2022-08-16T07:56:00.535Z,23.02
2022-08-16T07:58:34.236Z,22.96
2022-08-16T08:01:10.585Z,22.81
2022-08-16T08:03:48.444Z,22.71
2022-08-16T08:06:25.073Z,22.56
2022-08-16T08:08:59.154Z,22.41
2022-08-16T08:11:28.471Z,22.30
2022-08-16T08:14:03.496Z,22.23
2022-08-16T08:16:33.120Z,22.16
2022-08-16T08:19:02.783Z,22.16
2022-08-16T08:22:01.406Z,22.09
2022-08-16T08:24:21.736Z,22.16
2022-08-16T08:26:50.310Z,22.18
2022-08-16T08:29:23.199Z,22.19
2022-08-16T08:32:58.398Z,22.18
2022-08-16T08:34:53.643Z,22.06
2022-08-16T08:37:22.537Z,21.95
2022-08-16T08:39:54.821Z,21.79
2022-08-16T08:42:25.181Z,21.63
2022-08-16T08:44:54.878Z,21.59
2022-08-16T08:47:22.871Z,21.57
2022-08-16T08:49:55.753Z,21.50
2022-08-16T08:52:34.722Z,21.46
2022-08-16T08:55:09.200Z,21.13
2022-08-16T08:57:46.128Z,21.25
2022-08-16T09:00:15.657Z,21.13
2022-08-16T09:02:52.206Z,21.10
2022-08-16T09:05:22.466Z,21.01
2022-08-16T09:08:01.176Z,20.95
2022-08-16T09:10:30.885Z,20.90
2022-08-16T09:12:59.345Z,20.91
2022-08-16T09:15:32.784Z,20.93
2022-08-16T09:18:25.069Z,20.98
2022-08-16T09:20:58.390Z,21.03
2022-08-16T09:23:26.018Z,21.11
2022-08-16T09:25:54.698Z,21.17
2022-08-16T09:29:13.527Z,21.21
2022-08-16T09:31:11.012Z,21.28
2022-08-16T09:33:39.347Z,21.41
2022-08-16T09:36:12.101Z,21.43
2022-08-16T09:38:59.577Z,21.40
2022-08-16T09:41:27.147Z,21.50
2022-08-16T09:44:00.211Z,21.52
2022-08-16T09:46:45.927Z,21.67
2022-08-16T09:49:16.662Z,21.72
2022-08-16T09:51:49.632Z,21.75
2022-08-16T09:54:20.961Z,21.92
2022-08-16T09:56:52.994Z,22.08
2022-08-16T09:59:25.506Z,22.24
2022-08-16T10:01:58.082Z,22.38
2022-08-16T10:04:31.539Z,22.41
2022-08-16T10:07:02.463Z,22.49
2022-08-16T10:09:45.062Z,22.53
2022-08-16T10:12:42.943Z,22.50
2022-08-16T10:15:15.482Z,22.51
2022-08-16T10:18:00.671Z,22.53
2022-08-16T10:20:33.938Z,22.44
2022-08-16T10:23:06.745Z,22.52
2022-08-16T10:27:00.760Z,22.58
2022-08-16T10:28:29.965Z,22.53
2022-08-16T10:31:04.318Z,22.50
2022-08-16T10:33:33.480Z,22.42
2022-08-16T10:36:03.867Z,22.33
2022-08-16T10:38:36.861Z,22.37
2022-08-16T10:41:08.527Z,22.32
2022-08-16T10:43:39.141Z,22.32
2022-08-16T10:46:39.277Z,22.25
2022-08-16T10:48:56.863Z,22.19
2022-08-16T10:51:33.437Z,22.10
2022-08-16T10:54:00.983Z,22.08
2022-08-16T10:56:55.393Z,22.10
2022-08-16T10:59:32.666Z,22.07
2022-08-16T11:07:43.728Z,22.40
2022-08-16T11:10:20.745Z,22.40
2022-08-16T11:12:48.529Z,22.35
2022-08-16T11:15:20.316Z,22.43
2022-08-16T11:18:48.460Z,22.42
2022-08-16T11:20:41.296Z,22.47
2022-08-16T11:23:11.064Z,22.40
2022-08-16T11:31:13.542Z,22.67
2022-08-16T11:33:55.819Z,22.68
2022-08-16T11:36:27.953Z,22.71
2022-08-16T11:39:00.362Z,22.73
2022-08-16T11:41:30.854Z,22.74
2022-08-16T11:43:59.072Z,22.71
2022-08-16T11:46:45.321Z,22.75
2022-08-16T11:49:14.201Z,22.63
2022-08-16T11:51:44.401Z,22.71
2022-08-16T11:54:21.547Z,22.67
2022-08-16T11:56:57.666Z,22.68
2022-08-16T11:59:28.901Z,22.71
2022-08-16T12:02:31.368Z,22.67
2022-08-16T12:04:51.986Z,22.69
2022-08-16T12:07:20.824Z,22.70
2022-08-16T12:09:53.295Z,22.74
2022-08-16T12:12:21.072Z,22.75
2022-08-16T12:14:59.845Z,22.75
2022-08-16T12:17:32.438Z,22.75
2022-08-16T12:20:01.510Z,22.68
2022-08-16T12:22:29.136Z,22.75
2022-08-16T12:24:56.473Z,22.71
2022-08-16T12:27:25.737Z,22.81
2022-08-16T12:29:54.007Z,22.90
2022-08-16T12:32:37.534Z,22.99
2022-08-16T12:35:12.157Z,23.05
2022-08-16T12:37:41.520Z,23.06
2022-08-16T12:40:23.702Z,23.03
2022-08-16T12:42:58.446Z,23.04
2022-08-16T12:45:30.902Z,23.15
2022-08-16T12:48:33.464Z,23.16
2022-08-16T12:51:10.970Z,23.11
2022-08-16T12:53:47.680Z,23.07
2022-08-16T12:56:14.901Z,23.06
2022-08-16T12:58:48.788Z,23.14
2022-08-16T13:01:24.651Z,23.06
2022-08-16T13:04:12.134Z,23.12
2022-08-16T13:06:44.254Z,23.11
2022-08-16T13:09:20.992Z,23.08
2022-08-16T13:12:00.103Z,23.03
2022-08-16T13:14:39.582Z,23.05
2022-08-16T13:17:18.819Z,23.08
2022-08-16T13:20:07.728Z,23.04
2022-08-16T13:22:42.990Z,23.00
2022-08-16T13:25:19.436Z,23.03
2022-08-16T13:28:02.033Z,22.98
2022-08-16T13:30:41.168Z,22.94
2022-08-16T13:33:16.480Z,22.89
2022-08-16T13:35:56.428Z,22.90
2022-08-16T13:38:30.199Z,22.91
2022-08-16T13:41:02.646Z,22.89
2022-08-16T13:43:32.688Z,22.88
2022-08-16T13:46:04.369Z,22.85
2022-08-16T13:48:42.855Z,22.83
2022-08-16T13:51:16.804Z,22.75
2022-08-16T13:53:54.321Z,22.78
2022-08-16T13:56:25.737Z,22.71
2022-08-16T13:58:55.012Z,22.80
2022-08-16T14:01:22.544Z,22.75
2022-08-16T14:03:50.463Z,22.75
2022-08-16T14:06:21.949Z,22.85
2022-08-16T14:08:50.360Z,22.86
2022-08-16T14:11:33.485Z,22.86
2022-08-16T14:14:01.791Z,22.88
2022-08-16T14:16:33.632Z,22.85
2022-08-16T14:19:02.204Z,22.95
2022-08-16T14:21:35.384Z,22.98
2022-08-16T14:24:12.911Z,23.00
2022-08-16T14:26:50.032Z,23.03
2022-08-16T14:31:54.133Z,22.91
2022-08-16T14:34:21.964Z,22.94
2022-08-16T14:36:52.959Z,22.88
2022-08-16T14:39:22.195Z,22.88
2022-08-16T14:41:49.368Z,22.83
2022-08-16T14:44:20.177Z,22.80
2022-08-16T14:46:46.966Z,22.69
2022-08-16T14:49:14.474Z,22.69
2022-08-16T14:51:46.003Z,22.64
2022-08-16T14:54:12.830Z,22.58
2022-08-16T14:56:46.901Z,22.58
2022-08-16T14:59:22.542Z,22.57
2022-08-16T15:01:58.780Z,22.52
2022-08-16T15:04:39.623Z,22.44
2022-08-16T15:07:15.800Z,22.33
2022-08-16T15:10:01.225Z,22.27
2022-08-16T15:12:34.160Z,22.29
2022-08-16T15:15:12.095Z,22.23
2022-08-16T15:17:43.209Z,22.17
2022-08-16T15:20:22.592Z,22.07
2022-08-16T15:22:51.014Z,22.10
2022-08-16T15:25:29.190Z,22.07
2022-08-16T15:27:58.518Z,22.03
2022-08-16T15:30:48.101Z,21.94
2022-08-16T15:33:20.636Z,21.87
2022-08-16T15:35:50.655Z,21.82
2022-08-16T15:38:55.000Z,21.73
2022-08-16T15:41:05.389Z,21.68
2022-08-16T15:43:39.098Z,21.52
2022-08-16T15:46:35.663Z,21.43
2022-08-16T15:49:12.063Z,21.38
2022-08-16T15:51:39.951Z,21.35
2022-08-16T15:54:21.301Z,21.17
2022-08-16T15:56:55.249Z,21.15
2022-08-16T15:59:27.397Z,21.04
2022-08-16T16:01:56.514Z,20.95
2022-08-16T16:04:28.564Z,20.91
2022-08-16T16:06:56.667Z,20.87
2022-08-16T16:09:36.716Z,20.85
2022-08-16T16:12:34.061Z,20.84
2022-08-16T16:14:54.721Z,20.83
2022-08-16T16:17:21.502Z,20.77
2022-08-16T16:19:49.825Z,20.74
2022-08-16T16:22:21.781Z,20.73
2022-08-16T16:24:52.049Z,20.71
2022-08-16T16:27:18.958Z,20.68
2022-08-16T16:29:57.778Z,20.65
2022-08-16T16:32:34.168Z,20.62
2022-08-16T16:35:06.295Z,20.59
2022-08-16T16:37:33.440Z,20.52
2022-08-16T16:40:01.088Z,20.47
2022-08-16T16:42:35.347Z,20.44
2022-08-16T16:45:10.518Z,20.39
2022-08-16T16:47:40.830Z,20.36
2022-08-16T16:50:10.220Z,20.27
2022-08-16T16:52:44.229Z,20.27
2022-08-16T16:55:15.793Z,20.25
2022-08-16T16:58:03.283Z,20.24
2022-08-16T17:00:38.278Z,20.12
2022-08-16T17:03:17.011Z,20.15
2022-08-16T17:05:56.860Z,20.13
2022-08-16T17:08:27.334Z,20.15
2022-08-16T17:10:55.983Z,20.18
2022-08-16T17:13:25.221Z,20.19
2022-08-16T17:15:53.921Z,20.19
2022-08-16T17:19:17.450Z,20.18
2022-08-16T17:21:11.354Z,20.15
2022-08-16T17:23:59.496Z,20.12
2022-08-16T17:26:31.001Z,20.06
2022-08-16T17:29:02.268Z,20.05
2022-08-16T17:31:41.141Z,20.02
2022-08-16T17:34:30.162Z,20.00
2022-08-16T17:37:05.325Z,19.99
2022-08-16T17:39:45.276Z,19.99
2022-08-16T17:42:25.338Z,19.91
2022-08-16T17:44:52.769Z,19.94
2022-08-16T17:47:21.724Z,19.93
2022-08-16T17:49:49.096Z,19.86
2022-08-16T17:52:17.016Z,19.88
2022-08-16T17:54:44.516Z,19.94
2022-08-16T17:57:12.440Z,19.91
2022-08-16T17:59:41.065Z,19.94
2022-08-16T18:02:42.342Z,19.92
2022-08-16T18:04:55.680Z,19.93
2022-08-16T18:07:23.004Z,19.89
2022-08-16T18:09:52.321Z,19.81
2022-08-16T18:12:51.008Z,19.83
2022-08-16T18:15:11.247Z,19.74
2022-08-16T18:17:38.613Z,19.76
2022-08-16T18:20:07.134Z,19.68
2022-08-16T18:22:34.280Z,19.72
2022-08-16T18:25:01.465Z,19.67
2022-08-16T18:27:29.812Z,19.61
2022-08-16T18:29:56.533Z,19.65
2022-08-16T18:32:24.824Z,19.59
2022-08-16T18:34:54.489Z,19.53
2022-08-16T18:37:23.340Z,19.52
2022-08-16T18:39:50.509Z,19.50
2022-08-16T18:42:17.350Z,19.44
2022-08-16T18:44:44.691Z,19.36
2022-08-16T18:47:11.765Z,19.41
2022-08-16T18:49:38.904Z,19.40
2022-08-16T18:52:05.858Z,19.39
2022-08-16T18:54:34.235Z,19.37
2022-08-16T18:57:20.913Z,19.35
2022-08-16T18:59:48.001Z,19.36
2022-08-16T19:02:56.860Z,19.31
2022-08-16T19:05:25.899Z,19.32
2022-08-16T19:07:52.739Z,19.39
2022-08-16T19:10:20.404Z,19.31
2022-08-16T19:12:47.274Z,19.25
2022-08-16T19:15:23.428Z,19.34
2022-08-16T19:17:50.471Z,19.43
2022-08-16T19:20:21.364Z,19.41
2022-08-16T19:23:05.012Z,19.43
2022-08-16T19:25:46.699Z,19.44
2022-08-16T19:28:49.099Z,19.39
2022-08-16T19:31:05.951Z,19.43
2022-08-16T19:33:32.766Z,19.41
2022-08-16T19:35:59.743Z,19.38
2022-08-16T19:38:26.766Z,19.28
2022-08-16T19:40:53.513Z,19.35
2022-08-16T19:43:21.959Z,19.36
2022-08-16T19:45:49.579Z,19.34
2022-08-16T19:48:16.359Z,19.33
2022-08-16T19:50:43.088Z,19.33
2022-08-16T19:53:18.870Z,19.33
2022-08-16T19:55:47.546Z,19.31
2022-08-16T19:58:16.869Z,19.25
2022-08-16T20:00:45.652Z,19.25
2022-08-16T20:03:23.388Z,19.26
2022-08-16T20:05:51.563Z,19.21
2022-08-16T20:08:18.982Z,19.20
2022-08-16T20:10:48.504Z,19.20
2022-08-16T20:13:21.444Z,19.19
2022-08-16T20:15:49.576Z,19.12
2022-08-16T20:18:24.560Z,19.15
2022-08-16T20:20:52.919Z,19.19
2022-08-16T20:23:24.381Z,19.20
2022-08-16T20:25:55.830Z,19.20
2022-08-16T20:28:45.026Z,19.16
2022-08-16T20:31:11.952Z,19.20
2022-08-16T20:33:38.878Z,19.19
2022-08-16T20:36:05.740Z,19.15
2022-08-16T20:38:32.772Z,19.04
2022-08-16T20:40:59.523Z,19.07
2022-08-16T20:43:26.215Z,19.05
2022-08-16T20:45:53.296Z,19.12
2022-08-16T20:48:20.004Z,19.08
2022-08-16T20:50:46.783Z,19.11
2022-08-16T20:53:13.733Z,19.06
2022-08-16T20:55:41.655Z,19.05
2022-08-16T20:58:08.403Z,18.97
2022-08-16T21:00:35.510Z,18.97
2022-08-16T21:03:12.737Z,19.02
2022-08-16T21:05:40.060Z,19.05
2022-08-16T21:08:27.970Z,19.06
2022-08-16T21:10:54.370Z,19.05
2022-08-16T21:13:21.132Z,18.97
2022-08-16T21:15:48.041Z,18.97
2022-08-16T21:18:15.198Z,19.02
2022-08-16T21:20:41.903Z,19.04
2022-08-16T21:23:10.974Z,19.04
2022-08-16T21:25:39.622Z,19.01
2022-08-16T21:28:40.966Z,19.00
2022-08-16T21:31:07.093Z,19.02
2022-08-16T21:33:35.998Z,18.94
2022-08-16T21:36:03.559Z,18.97
2022-08-16T21:38:31.153Z,18.93
2022-08-16T21:41:03.379Z,18.87
2022-08-16T21:43:32.909Z,18.92
2022-08-16T21:46:01.723Z,18.86
2022-08-16T21:48:34.041Z,18.83
2022-08-16T21:51:14.621Z,18.80
2022-08-16T21:53:42.975Z,18.77
2022-08-16T21:56:16.883Z,18.69
2022-08-16T21:58:46.009Z,18.61
2022-08-16T22:01:13.289Z,18.67
2022-08-16T22:03:40.604Z,18.69
2022-08-16T22:06:13.778Z,18.71
2022-08-16T22:08:48.801Z,18.71
2022-08-16T22:11:19.878Z,18.74
2022-08-16T22:13:58.322Z,18.72
2022-08-16T22:16:36.983Z,18.61
2022-08-16T22:19:05.228Z,18.67
2022-08-16T22:21:33.672Z,18.66
2022-08-16T22:24:00.782Z,18.59
2022-08-16T22:26:31.811Z,18.56
2022-08-16T22:29:02.495Z,18.58
2022-08-16T22:31:29.672Z,18.56
2022-08-16T22:33:57.277Z,18.59
2022-08-16T22:36:28.588Z,18.60
2022-08-16T22:38:58.814Z,18.59
2022-08-16T22:41:28.730Z,18.56
2022-08-16T22:43:56.034Z,18.59
2022-08-16T22:46:22.776Z,18.55
2022-08-16T22:48:50.865Z,18.53
2022-08-16T22:51:19.747Z,18.48
2022-08-16T22:53:46.928Z,18.40
2022-08-16T22:56:15.477Z,18.42
2022-08-16T22:58:42.849Z,18.45
2022-08-16T23:01:10.673Z,18.44
2022-08-16T23:03:38.518Z,18.44
2022-08-16T23:06:06.510Z,18.41
2022-08-16T23:08:39.458Z,18.42
2022-08-16T23:11:21.034Z,18.41
2022-08-16T23:13:54.646Z,18.39
2022-08-16T23:16:33.732Z,18.37
2022-08-16T23:19:10.367Z,18.34
2022-08-16T23:21:40.688Z,18.31
2022-08-16T23:24:08.939Z,18.23
2022-08-16T23:26:45.969Z,18.26
2022-08-16T23:29:24.217Z,18.24
2022-08-16T23:31:59.296Z,18.21
2022-08-16T23:34:28.114Z,18.19
2022-08-16T23:36:55.307Z,18.19
2022-08-16T23:39:22.296Z,18.18
2022-08-16T23:41:49.623Z,18.19
2022-08-16T23:44:56.665Z,18.19
2022-08-16T23:47:05.978Z,18.19
2022-08-16T23:49:56.959Z,18.15
2022-08-16T23:52:45.330Z,18.11
2022-08-16T23:55:07.245Z,18.08
2022-08-16T23:57:34.280Z,18.01
